Virgil, South Dakota
Current Conditions -  °F | °C
As of 11:55 PM on Sunday 21 Dec 2014 (Local Time) from KHON Reporting Station
Haze Haze  
Wind Chill: -2°   Ceiling: 10000
Heat Index:   Visibility: 6mi
Dew Point:   Wind: 10mph
Humidity: 93%   Direction: 170°S
Pressure: 29.44"   Gusts: NA
Location:  44.29°N, 98.42°W
Report Text: KHON 220555Z AUTO 17009KT 6SM BR FEW009 OVC100 02/01 A2944 RMK AO2 SLP981 T00220011 10028 20017 400281011 58005
Loading
Personal Weather Stations






























Interactive Weather Map New forecast layout! Learn more

10-Day Weather Forecast

Advertisements
Track Severe Weather on mobile